This is the latest recevied weather packets stored in our database for station/object WD4LSS. If no packets are shown the sender has not sent any weather packets the latest 10 day(s).
| Time | Temp. | Humidity | Pressure | Rain* | Wind** | Luminosity | Snow |
|---|---|---|---|---|---|---|---|
| 1777515017 | 18.89° C | 91% | 1010.1 hPa | 0 mm | - | - | - |
| 1777512617 | 18.89° C | 90% | 1009.3 hPa | 0 mm | - | - | - |
| 1777512017 | 19.44° C | 90% | 1009.1 hPa | 0 mm | - | - | - |
| 1777511717 | 19.44° C | 89% | 1009 hPa | 0 mm | - | - | - |
| 1777510217 | 20° C | 87% | 1008.6 hPa | 0 mm | - | - | - |
| 1777509617 | 20.56° C | 86% | 1008.5 hPa | 0 mm | - | - | - |
| 1777503037 | 25° C | 71% | 1008.1 hPa | 0 mm | - | - | - |
| 1777502716 | 25° C | 70% | 1008.1 hPa | 0 mm | - | - | - |
| 1777502117 | 25° C | 72% | 1007.9 hPa | 0 mm | - | - | - |
| 1777500616 | 24.44° C | 74% | 1008.3 hPa | 0 mm | - | - | - |
| 1777497616 | 24.44° C | 73% | 1009.1 hPa | 0 mm | - | - | - |
| 1777496716 | 23.89° C | 73% | 1009.2 hPa | 0 mm | - | - | - |
| 1777495816 | 24.44° C | 72% | 1009.2 hPa | 0 mm | - | - | - |
| 1777495216 | 25° C | 70% | 1009.1 hPa | 0 mm | - | - | - |
| 1777492536 | 23.89° C | 73% | 1009.8 hPa | 0 mm | - | - | - |
| 1777492216 | 23.89° C | 75% | 1009.9 hPa | 0 mm | - | - | - |
| 1777488936 | 21.11° C | 82% | 1010.8 hPa | 0 mm | - | - | - |
| 1777488636 | 20.56° C | 83% | 1010.9 hPa | 0 mm | - | - | - |
| 1777486816 | 20° C | 87% | 1011.3 hPa | 0 mm | - | - | - |
| 1777486216 | 18.89° C | 90% | 1011.5 hPa | 0 mm | - | - | - |
| 1777485616 | 18.33° C | 91% | 1011.5 hPa | 0 mm | - | - | - |
| 1777483236 | 17.22° C | 94% | 1012.1 hPa | 0 mm | - | - | - |
| 1777482636 | 17.22° C | 94% | 1012.2 hPa | 0 mm | - | - | - |
| 1777481716 | 17.22° C | 94% | 1012.6 hPa | 0 mm | - | - | - |
| 1777480536 | 17.22° C | 95% | 1012.8 hPa | 0 mm | - | - | - |
* Rain latest hour (hover to see other rain measurements)
** Current wind speed in m/s (hover to see current wind gust speed)